sensor_id;sensor_type;location;lat;lon;timestamp;P1;durP1;ratioP1;P2;durP2;ratioP2
76693;SDS011;69667;52.136;5.424;2023-07-24T00:00:47;4.72;;;2.47;;
76693;SDS011;69667;52.136;5.424;2023-07-24T00:03:15;5.03;;;3.03;;
76693;SDS011;69667;52.136;5.424;2023-07-24T00:05:43;5.50;;;3.03;;
76693;SDS011;69667;52.136;5.424;2023-07-24T00:08:12;4.50;;;2.78;;
76693;SDS011;69667;52.136;5.424;2023-07-24T00:10:40;5.53;;;2.78;;
76693;SDS011;69667;52.136;5.424;2023-07-24T00:13:08;4.38;;;2.65;;
76693;SDS011;69667;52.136;5.424;2023-07-24T00:15:38;3.85;;;2.53;;
76693;SDS011;69667;52.136;5.424;2023-07-24T00:18:06;4.57;;;2.58;;
76693;SDS011;69667;52.136;5.424;2023-07-24T00:20:35;4.90;;;2.53;;
76693;SDS011;69667;52.136;5.424;2023-07-24T00:23:03;4.55;;;2.95;;
76693;SDS011;69667;52.136;5.424;2023-07-24T00:25:31;4.10;;;2.50;;
76693;SDS011;69667;52.136;5.424;2023-07-24T00:28:00;4.90;;;2.97;;
76693;SDS011;69667;52.136;5.424;2023-07-24T00:30:28;5.40;;;2.80;;
76693;SDS011;69667;52.136;5.424;2023-07-24T00:32:56;5.18;;;3.00;;
76693;SDS011;69667;52.136;5.424;2023-07-24T00:35:25;4.40;;;2.75;;
76693;SDS011;69667;52.136;5.424;2023-07-24T00:37:53;4.78;;;2.92;;
76693;SDS011;69667;52.136;5.424;2023-07-24T00:40:22;4.53;;;2.63;;
76693;SDS011;69667;52.136;5.424;2023-07-24T00:42:50;4.53;;;2.70;;
76693;SDS011;69667;52.136;5.424;2023-07-24T00:45:19;5.38;;;2.72;;
76693;SDS011;69667;52.136;5.424;2023-07-24T00:47:49;4.28;;;2.92;;
76693;SDS011;69667;52.136;5.424;2023-07-24T00:50:18;4.70;;;3.00;;
76693;SDS011;69667;52.136;5.424;2023-07-24T00:52:47;6.80;;;3.75;;
76693;SDS011;69667;52.136;5.424;2023-07-24T00:55:15;5.50;;;3.05;;
76693;SDS011;69667;52.136;5.424;2023-07-24T00:57:44;4.45;;;2.92;;
76693;SDS011;69667;52.136;5.424;2023-07-24T01:00:13;4.68;;;3.00;;
76693;SDS011;69667;52.136;5.424;2023-07-24T01:05:11;5.18;;;3.05;;
76693;SDS011;69667;52.136;5.424;2023-07-24T01:07:43;4.75;;;2.70;;
76693;SDS011;69667;52.136;5.424;2023-07-24T01:10:12;4.63;;;3.15;;
76693;SDS011;69667;52.136;5.424;2023-07-24T01:12:53;5.15;;;3.00;;
76693;SDS011;69667;52.136;5.424;2023-07-24T01:15:32;5.60;;;2.85;;
76693;SDS011;69667;52.136;5.424;2023-07-24T01:18:09;4.78;;;2.95;;
76693;SDS011;69667;52.136;5.424;2023-07-24T01:20:40;5.28;;;2.97;;
76693;SDS011;69667;52.136;5.424;2023-07-24T01:25:59;5.18;;;3.20;;
76693;SDS011;69667;52.136;5.424;2023-07-24T01:28:31;4.30;;;2.92;;
76693;SDS011;69667;52.136;5.424;2023-07-24T01:30:59;4.57;;;3.00;;
76693;SDS011;69667;52.136;5.424;2023-07-24T01:33:28;4.78;;;3.08;;
76693;SDS011;69667;52.136;5.424;2023-07-24T01:35:58;5.53;;;2.50;;
76693;SDS011;69667;52.136;5.424;2023-07-24T01:38:28;4.03;;;2.95;;
76693;SDS011;69667;52.136;5.424;2023-07-24T01:40:59;4.25;;;2.88;;
76693;SDS011;69667;52.136;5.424;2023-07-24T01:43:28;6.13;;;3.22;;
76693;SDS011;69667;52.136;5.424;2023-07-24T01:45:57;4.55;;;2.90;;
76693;SDS011;69667;52.136;5.424;2023-07-24T01:48:26;4.50;;;2.90;;
76693;SDS011;69667;52.136;5.424;2023-07-24T01:50:54;5.38;;;3.20;;
76693;SDS011;69667;52.136;5.424;2023-07-24T01:53:23;4.55;;;2.92;;
76693;SDS011;69667;52.136;5.424;2023-07-24T01:55:51;4.50;;;2.90;;
76693;SDS011;69667;52.136;5.424;2023-07-24T01:58:19;6.18;;;3.15;;
76693;SDS011;69667;52.136;5.424;2023-07-24T02:00:47;5.68;;;2.67;;
76693;SDS011;69667;52.136;5.424;2023-07-24T02:03:16;4.30;;;2.75;;
76693;SDS011;69667;52.136;5.424;2023-07-24T02:05:48;5.03;;;3.25;;
76693;SDS011;69667;52.136;5.424;2023-07-24T02:08:18;5.25;;;3.20;;
76693;SDS011;69667;52.136;5.424;2023-07-24T02:10:49;6.53;;;2.90;;
76693;SDS011;69667;52.136;5.424;2023-07-24T02:13:18;5.80;;;3.33;;
76693;SDS011;69667;52.136;5.424;2023-07-24T02:15:49;7.22;;;3.05;;
76693;SDS011;69667;52.136;5.424;2023-07-24T02:18:18;5.30;;;3.10;;
76693;SDS011;69667;52.136;5.424;2023-07-24T02:20:49;4.82;;;3.25;;
76693;SDS011;69667;52.136;5.424;2023-07-24T02:23:18;4.80;;;3.00;;
76693;SDS011;69667;52.136;5.424;2023-07-24T02:25:50;5.55;;;3.33;;
76693;SDS011;69667;52.136;5.424;2023-07-24T02:28:19;4.95;;;3.08;;
76693;SDS011;69667;52.136;5.424;2023-07-24T02:30:48;5.25;;;3.47;;
76693;SDS011;69667;52.136;5.424;2023-07-24T02:33:16;5.68;;;3.42;;
76693;SDS011;69667;52.136;5.424;2023-07-24T02:35:44;5.72;;;4.00;;
76693;SDS011;69667;52.136;5.424;2023-07-24T02:38:14;6.40;;;3.90;;
76693;SDS011;69667;52.136;5.424;2023-07-24T02:40:43;7.20;;;3.53;;
76693;SDS011;69667;52.136;5.424;2023-07-24T02:43:13;6.45;;;3.80;;
76693;SDS011;69667;52.136;5.424;2023-07-24T02:45:42;5.65;;;3.78;;
76693;SDS011;69667;52.136;5.424;2023-07-24T02:48:10;5.53;;;3.30;;
76693;SDS011;69667;52.136;5.424;2023-07-24T02:50:38;5.72;;;3.72;;
76693;SDS011;69667;52.136;5.424;2023-07-24T02:53:07;5.82;;;3.30;;
76693;SDS011;69667;52.136;5.424;2023-07-24T02:55:35;7.50;;;3.40;;
76693;SDS011;69667;52.136;5.424;2023-07-24T02:58:03;6.10;;;3.40;;
76693;SDS011;69667;52.136;5.424;2023-07-24T03:00:31;4.60;;;3.33;;
76693;SDS011;69667;52.136;5.424;2023-07-24T03:03:00;5.25;;;3.83;;
76693;SDS011;69667;52.136;5.424;2023-07-24T03:05:29;4.85;;;3.25;;
76693;SDS011;69667;52.136;5.424;2023-07-24T03:07:57;6.30;;;3.53;;
76693;SDS011;69667;52.136;5.424;2023-07-24T03:10:25;5.32;;;3.60;;
76693;SDS011;69667;52.136;5.424;2023-07-24T03:12:53;6.07;;;3.13;;
76693;SDS011;69667;52.136;5.424;2023-07-24T03:15:22;5.72;;;3.97;;
76693;SDS011;69667;52.136;5.424;2023-07-24T03:17:50;6.25;;;3.90;;
76693;SDS011;69667;52.136;5.424;2023-07-24T03:20:19;5.88;;;3.70;;
76693;SDS011;69667;52.136;5.424;2023-07-24T03:22:48;5.47;;;3.50;;
76693;SDS011;69667;52.136;5.424;2023-07-24T03:25:16;7.13;;;3.78;;
76693;SDS011;69667;52.136;5.424;2023-07-24T03:27:44;4.50;;;3.15;;
76693;SDS011;69667;52.136;5.424;2023-07-24T03:30:13;5.95;;;3.78;;
76693;SDS011;69667;52.136;5.424;2023-07-24T03:32:41;6.70;;;3.45;;
76693;SDS011;69667;52.136;5.424;2023-07-24T03:35:10;6.28;;;3.70;;
76693;SDS011;69667;52.136;5.424;2023-07-24T03:37:38;6.68;;;3.78;;
76693;SDS011;69667;52.136;5.424;2023-07-24T03:40:06;5.18;;;3.03;;
76693;SDS011;69667;52.136;5.424;2023-07-24T03:42:35;5.32;;;3.10;;
76693;SDS011;69667;52.136;5.424;2023-07-24T03:47:32;5.20;;;3.15;;
76693;SDS011;69667;52.136;5.424;2023-07-24T03:50:00;5.22;;;3.47;;
76693;SDS011;69667;52.136;5.424;2023-07-24T03:52:28;6.05;;;3.38;;
76693;SDS011;69667;52.136;5.424;2023-07-24T03:54:57;8.05;;;3.35;;
76693;SDS011;69667;52.136;5.424;2023-07-24T03:57:25;5.88;;;3.42;;
76693;SDS011;69667;52.136;5.424;2023-07-24T03:59:53;5.53;;;3.53;;
76693;SDS011;69667;52.136;5.424;2023-07-24T04:02:22;7.15;;;3.60;;
76693;SDS011;69667;52.136;5.424;2023-07-24T04:04:51;7.28;;;3.42;;
76693;SDS011;69667;52.136;5.424;2023-07-24T04:07:19;6.93;;;3.53;;
76693;SDS011;69667;52.136;5.424;2023-07-24T04:09:47;5.63;;;3.78;;
76693;SDS011;69667;52.136;5.424;2023-07-24T04:12:16;6.22;;;3.63;;
76693;SDS011;69667;52.136;5.424;2023-07-24T04:14:44;5.82;;;3.72;;
76693;SDS011;69667;52.136;5.424;2023-07-24T04:17:12;9.98;;;3.75;;
76693;SDS011;69667;52.136;5.424;2023-07-24T04:19:41;5.93;;;3.33;;
76693;SDS011;69667;52.136;5.424;2023-07-24T04:22:09;6.57;;;3.58;;
76693;SDS011;69667;52.136;5.424;2023-07-24T04:24:37;5.85;;;3.63;;
76693;SDS011;69667;52.136;5.424;2023-07-24T04:27:06;6.97;;;3.83;;
76693;SDS011;69667;52.136;5.424;2023-07-24T04:29:34;7.40;;;3.85;;
76693;SDS011;69667;52.136;5.424;2023-07-24T04:32:02;7.18;;;3.83;;
76693;SDS011;69667;52.136;5.424;2023-07-24T04:34:31;5.93;;;3.83;;
76693;SDS011;69667;52.136;5.424;2023-07-24T04:39:27;6.18;;;3.50;;
76693;SDS011;69667;52.136;5.424;2023-07-24T04:41:56;6.10;;;3.92;;
76693;SDS011;69667;52.136;5.424;2023-07-24T04:44:24;7.22;;;4.15;;
76693;SDS011;69667;52.136;5.424;2023-07-24T04:46:52;7.55;;;4.45;;
76693;SDS011;69667;52.136;5.424;2023-07-24T04:49:22;7.30;;;3.95;;
76693;SDS011;69667;52.136;5.424;2023-07-24T04:51:51;6.38;;;3.78;;
76693;SDS011;69667;52.136;5.424;2023-07-24T04:54:19;9.02;;;4.15;;
76693;SDS011;69667;52.136;5.424;2023-07-24T04:56:47;6.40;;;3.88;;
76693;SDS011;69667;52.136;5.424;2023-07-24T04:59:16;7.13;;;4.10;;
76693;SDS011;69667;52.136;5.424;2023-07-24T05:01:44;9.43;;;4.00;;
76693;SDS011;69667;52.136;5.424;2023-07-24T05:04:13;7.13;;;4.20;;
76693;SDS011;69667;52.136;5.424;2023-07-24T05:06:41;6.70;;;4.05;;
76693;SDS011;69667;52.136;5.424;2023-07-24T05:09:09;8.77;;;4.35;;
76693;SDS011;69667;52.136;5.424;2023-07-24T05:11:37;7.38;;;4.30;;
76693;SDS011;69667;52.136;5.424;2023-07-24T05:14:06;10.07;;;4.65;;
76693;SDS011;69667;52.136;5.424;2023-07-24T05:16:34;7.65;;;4.30;;
76693;SDS011;69667;52.136;5.424;2023-07-24T05:19:02;7.78;;;4.47;;
76693;SDS011;69667;52.136;5.424;2023-07-24T05:21:31;7.78;;;4.32;;
76693;SDS011;69667;52.136;5.424;2023-07-24T05:23:59;10.55;;;4.68;;
76693;SDS011;69667;52.136;5.424;2023-07-24T05:26:28;9.52;;;4.95;;
76693;SDS011;69667;52.136;5.424;2023-07-24T05:28:56;8.52;;;4.25;;
76693;SDS011;69667;52.136;5.424;2023-07-24T05:31:25;7.72;;;3.88;;
76693;SDS011;69667;52.136;5.424;2023-07-24T05:33:53;7.95;;;4.63;;
76693;SDS011;69667;52.136;5.424;2023-07-24T05:36:21;8.20;;;4.63;;
76693;SDS011;69667;52.136;5.424;2023-07-24T05:38:51;8.38;;;4.63;;
76693;SDS011;69667;52.136;5.424;2023-07-24T05:41:20;6.47;;;4.13;;
76693;SDS011;69667;52.136;5.424;2023-07-24T05:43:48;8.43;;;4.22;;
76693;SDS011;69667;52.136;5.424;2023-07-24T05:46:17;8.90;;;4.43;;
76693;SDS011;69667;52.136;5.424;2023-07-24T05:48:45;7.10;;;4.53;;
76693;SDS011;69667;52.136;5.424;2023-07-24T05:51:13;7.15;;;4.07;;
76693;SDS011;69667;52.136;5.424;2023-07-24T05:53:42;9.02;;;4.63;;
76693;SDS011;69667;52.136;5.424;2023-07-24T05:56:10;7.13;;;4.22;;
76693;SDS011;69667;52.136;5.424;2023-07-24T05:58:38;9.88;;;4.38;;
76693;SDS011;69667;52.136;5.424;2023-07-24T06:01:06;9.50;;;4.55;;
76693;SDS011;69667;52.136;5.424;2023-07-24T06:03:37;7.50;;;4.07;;
76693;SDS011;69667;52.136;5.424;2023-07-24T06:06:06;7.97;;;4.50;;
76693;SDS011;69667;52.136;5.424;2023-07-24T06:08:34;7.95;;;4.20;;
76693;SDS011;69667;52.136;5.424;2023-07-24T06:11:02;7.60;;;4.15;;
76693;SDS011;69667;52.136;5.424;2023-07-24T06:13:30;8.50;;;4.00;;
76693;SDS011;69667;52.136;5.424;2023-07-24T06:15:59;8.00;;;3.83;;
76693;SDS011;69667;52.136;5.424;2023-07-24T06:18:27;7.13;;;3.72;;
76693;SDS011;69667;52.136;5.424;2023-07-24T06:20:55;6.28;;;3.63;;
76693;SDS011;69667;52.136;5.424;2023-07-24T06:23:24;6.45;;;3.50;;
76693;SDS011;69667;52.136;5.424;2023-07-24T06:25:52;9.23;;;4.00;;
76693;SDS011;69667;52.136;5.424;2023-07-24T06:28:20;8.32;;;4.05;;
76693;SDS011;69667;52.136;5.424;2023-07-24T06:30:51;6.13;;;3.58;;
76693;SDS011;69667;52.136;5.424;2023-07-24T06:33:21;6.60;;;3.40;;
76693;SDS011;69667;52.136;5.424;2023-07-24T06:38:17;8.40;;;3.53;;
76693;SDS011;69667;52.136;5.424;2023-07-24T06:40:48;5.78;;;3.80;;
76693;SDS011;69667;52.136;5.424;2023-07-24T06:43:16;7.35;;;3.72;;
76693;SDS011;69667;52.136;5.424;2023-07-24T06:45:45;7.68;;;3.85;;
76693;SDS011;69667;52.136;5.424;2023-07-24T06:48:13;7.15;;;3.63;;
76693;SDS011;69667;52.136;5.424;2023-07-24T06:53:09;6.22;;;3.17;;
76693;SDS011;69667;52.136;5.424;2023-07-24T06:55:37;6.97;;;3.15;;
76693;SDS011;69667;52.136;5.424;2023-07-24T06:58:06;9.98;;;3.42;;
76693;SDS011;69667;52.136;5.424;2023-07-24T07:00:34;8.43;;;3.53;;
76693;SDS011;69667;52.136;5.424;2023-07-24T07:03:02;8.77;;;3.42;;
76693;SDS011;69667;52.136;5.424;2023-07-24T07:08:01;7.13;;;3.40;;
76693;SDS011;69667;52.136;5.424;2023-07-24T07:13:00;7.55;;;3.38;;
76693;SDS011;69667;52.136;5.424;2023-07-24T07:17:56;6.53;;;3.35;;
76693;SDS011;69667;52.136;5.424;2023-07-24T07:22:52;6.13;;;3.40;;
76693;SDS011;69667;52.136;5.424;2023-07-24T07:25:21;9.63;;;3.67;;
76693;SDS011;69667;52.136;5.424;2023-07-24T07:30:17;8.68;;;3.55;;
76693;SDS011;69667;52.136;5.424;2023-07-24T07:35:15;5.00;;;3.20;;
76693;SDS011;69667;52.136;5.424;2023-07-24T07:40:11;6.03;;;3.28;;
76693;SDS011;69667;52.136;5.424;2023-07-24T07:45:10;7.50;;;4.05;;
76693;SDS011;69667;52.136;5.424;2023-07-24T07:47:39;7.32;;;3.70;;
76693;SDS011;69667;52.136;5.424;2023-07-24T07:50:07;7.30;;;3.63;;
76693;SDS011;69667;52.136;5.424;2023-07-24T07:52:36;7.70;;;3.75;;
76693;SDS011;69667;52.136;5.424;2023-07-24T07:55:04;7.40;;;3.60;;
76693;SDS011;69667;52.136;5.424;2023-07-24T07:57:36;5.75;;;3.72;;
76693;SDS011;69667;52.136;5.424;2023-07-24T08:00:05;7.28;;;4.20;;
76693;SDS011;69667;52.136;5.424;2023-07-24T08:02:34;6.63;;;4.15;;
76693;SDS011;69667;52.136;5.424;2023-07-24T08:05:07;6.53;;;3.83;;
76693;SDS011;69667;52.136;5.424;2023-07-24T08:07:45;6.97;;;4.00;;
76693;SDS011;69667;52.136;5.424;2023-07-24T08:10:14;9.70;;;4.10;;
76693;SDS011;69667;52.136;5.424;2023-07-24T08:12:44;5.30;;;3.47;;
76693;SDS011;69667;52.136;5.424;2023-07-24T08:15:12;6.07;;;4.22;;
76693;SDS011;69667;52.136;5.424;2023-07-24T08:17:40;7.18;;;4.05;;
76693;SDS011;69667;52.136;5.424;2023-07-24T08:22:37;5.88;;;3.88;;
76693;SDS011;69667;52.136;5.424;2023-07-24T08:27:33;7.10;;;3.65;;
76693;SDS011;69667;52.136;5.424;2023-07-24T08:30:15;6.25;;;3.38;;
76693;SDS011;69667;52.136;5.424;2023-07-24T08:35:12;8.02;;;3.35;;
76693;SDS011;69667;52.136;5.424;2023-07-24T08:37:42;6.15;;;3.67;;
76693;SDS011;69667;52.136;5.424;2023-07-24T08:40:11;6.68;;;3.63;;
76693;SDS011;69667;52.136;5.424;2023-07-24T08:42:39;7.07;;;3.38;;
76693;SDS011;69667;52.136;5.424;2023-07-24T08:45:13;5.65;;;3.65;;
76693;SDS011;69667;52.136;5.424;2023-07-24T08:47:42;7.53;;;3.50;;
76693;SDS011;69667;52.136;5.424;2023-07-24T08:50:12;6.70;;;3.67;;
76693;SDS011;69667;52.136;5.424;2023-07-24T08:52:42;6.10;;;3.45;;
76693;SDS011;69667;52.136;5.424;2023-07-24T08:55:12;8.13;;;4.10;;
76693;SDS011;69667;52.136;5.424;2023-07-24T08:57:40;8.70;;;4.07;;
76693;SDS011;69667;52.136;5.424;2023-07-24T09:00:08;8.68;;;3.33;;
76693;SDS011;69667;52.136;5.424;2023-07-24T09:02:37;5.40;;;3.33;;
76693;SDS011;69667;52.136;5.424;2023-07-24T09:05:05;5.80;;;3.53;;
76693;SDS011;69667;52.136;5.424;2023-07-24T09:07:34;7.55;;;3.40;;
76693;SDS011;69667;52.136;5.424;2023-07-24T09:10:03;6.40;;;3.58;;
76693;SDS011;69667;52.136;5.424;2023-07-24T09:12:32;5.53;;;3.38;;
76693;SDS011;69667;52.136;5.424;2023-07-24T09:15:03;6.88;;;4.47;;
76693;SDS011;69667;52.136;5.424;2023-07-24T09:17:33;8.02;;;3.95;;
76693;SDS011;69667;52.136;5.424;2023-07-24T09:20:02;7.20;;;4.13;;
76693;SDS011;69667;52.136;5.424;2023-07-24T09:22:31;5.13;;;3.30;;
76693;SDS011;69667;52.136;5.424;2023-07-24T09:25:00;6.47;;;3.20;;
76693;SDS011;69667;52.136;5.424;2023-07-24T09:27:30;5.68;;;3.35;;
76693;SDS011;69667;52.136;5.424;2023-07-24T09:30:00;7.80;;;3.42;;
76693;SDS011;69667;52.136;5.424;2023-07-24T09:32:29;7.47;;;4.03;;
76693;SDS011;69667;52.136;5.424;2023-07-24T09:34:58;6.93;;;4.03;;
76693;SDS011;69667;52.136;5.424;2023-07-24T09:37:27;6.18;;;3.50;;
76693;SDS011;69667;52.136;5.424;2023-07-24T09:39:58;6.78;;;3.80;;
76693;SDS011;69667;52.136;5.424;2023-07-24T09:42:33;5.03;;;3.35;;
76693;SDS011;69667;52.136;5.424;2023-07-24T09:45:18;5.65;;;3.55;;
76693;SDS011;69667;52.136;5.424;2023-07-24T09:47:49;9.50;;;3.80;;
76693;SDS011;69667;52.136;5.424;2023-07-24T09:50:26;6.00;;;3.70;;
76693;SDS011;69667;52.136;5.424;2023-07-24T09:52:54;5.70;;;3.00;;
76693;SDS011;69667;52.136;5.424;2023-07-24T09:55:29;5.88;;;3.60;;
76693;SDS011;69667;52.136;5.424;2023-07-24T09:58:02;6.55;;;3.60;;
76693;SDS011;69667;52.136;5.424;2023-07-24T10:00:32;7.85;;;3.88;;
76693;SDS011;69667;52.136;5.424;2023-07-24T10:03:00;7.15;;;3.67;;
76693;SDS011;69667;52.136;5.424;2023-07-24T10:05:29;6.38;;;3.70;;
76693;SDS011;69667;52.136;5.424;2023-07-24T10:07:58;7.88;;;3.47;;
76693;SDS011;69667;52.136;5.424;2023-07-24T10:10:26;8.05;;;3.78;;
76693;SDS011;69667;52.136;5.424;2023-07-24T10:12:57;6.10;;;3.45;;
76693;SDS011;69667;52.136;5.424;2023-07-24T10:15:26;6.80;;;3.53;;
76693;SDS011;69667;52.136;5.424;2023-07-24T10:18:01;5.30;;;3.03;;
76693;SDS011;69667;52.136;5.424;2023-07-24T10:20:40;5.88;;;2.85;;
76693;SDS011;69667;52.136;5.424;2023-07-24T10:23:09;5.95;;;2.70;;
76693;SDS011;69667;52.136;5.424;2023-07-24T10:25:39;6.55;;;3.17;;
76693;SDS011;69667;52.136;5.424;2023-07-24T10:28:08;5.43;;;3.58;;
76693;SDS011;69667;52.136;5.424;2023-07-24T10:30:38;8.00;;;2.83;;
76693;SDS011;69667;52.136;5.424;2023-07-24T10:35:42;7.07;;;3.40;;
76693;SDS011;69667;52.136;5.424;2023-07-24T10:38:15;5.35;;;3.22;;
76693;SDS011;69667;52.136;5.424;2023-07-24T10:40:45;5.13;;;3.20;;
76693;SDS011;69667;52.136;5.424;2023-07-24T10:43:19;6.78;;;3.30;;
76693;SDS011;69667;52.136;5.424;2023-07-24T10:45:49;7.55;;;2.95;;
76693;SDS011;69667;52.136;5.424;2023-07-24T10:48:18;4.97;;;2.63;;
76693;SDS011;69667;52.136;5.424;2023-07-24T10:50:48;6.15;;;3.15;;
76693;SDS011;69667;52.136;5.424;2023-07-24T10:53:21;5.40;;;2.85;;
76693;SDS011;69667;52.136;5.424;2023-07-24T10:55:51;6.13;;;3.03;;
76693;SDS011;69667;52.136;5.424;2023-07-24T10:58:20;4.60;;;2.55;;
76693;SDS011;69667;52.136;5.424;2023-07-24T11:00:52;4.80;;;2.88;;
76693;SDS011;69667;52.136;5.424;2023-07-24T11:03:23;7.25;;;2.92;;
76693;SDS011;69667;52.136;5.424;2023-07-24T11:05:52;5.28;;;3.05;;
76693;SDS011;69667;52.136;5.424;2023-07-24T11:08:20;6.25;;;3.13;;
76693;SDS011;69667;52.136;5.424;2023-07-24T11:10:52;6.95;;;3.50;;
76693;SDS011;69667;52.136;5.424;2023-07-24T11:13:28;4.93;;;3.28;;
76693;SDS011;69667;52.136;5.424;2023-07-24T11:15:56;4.43;;;2.88;;
76693;SDS011;69667;52.136;5.424;2023-07-24T11:18:32;6.25;;;3.20;;
76693;SDS011;69667;52.136;5.424;2023-07-24T11:21:19;5.32;;;2.95;;
76693;SDS011;69667;52.136;5.424;2023-07-24T11:23:51;7.32;;;3.35;;
76693;SDS011;69667;52.136;5.424;2023-07-24T11:26:21;8.63;;;3.50;;
76693;SDS011;69667;52.136;5.424;2023-07-24T11:28:50;6.13;;;3.20;;
76693;SDS011;69667;52.136;5.424;2023-07-24T11:31:20;6.97;;;3.35;;
76693;SDS011;69667;52.136;5.424;2023-07-24T11:33:49;6.70;;;3.25;;
76693;SDS011;69667;52.136;5.424;2023-07-24T11:36:18;4.88;;;3.30;;
76693;SDS011;69667;52.136;5.424;2023-07-24T11:38:47;7.82;;;3.78;;
76693;SDS011;69667;52.136;5.424;2023-07-24T11:41:16;7.13;;;3.80;;
76693;SDS011;69667;52.136;5.424;2023-07-24T11:43:45;5.57;;;3.40;;
76693;SDS011;69667;52.136;5.424;2023-07-24T11:46:27;6.72;;;3.58;;
76693;SDS011;69667;52.136;5.424;2023-07-24T11:48:59;6.35;;;3.95;;
76693;SDS011;69667;52.136;5.424;2023-07-24T11:51:27;8.73;;;4.35;;
76693;SDS011;69667;52.136;5.424;2023-07-24T11:54:06;6.68;;;4.50;;
76693;SDS011;69667;52.136;5.424;2023-07-24T11:56:35;10.05;;;5.40;;
76693;SDS011;69667;52.136;5.424;2023-07-24T11:59:10;10.23;;;5.25;;
76693;SDS011;69667;52.136;5.424;2023-07-24T12:01:38;14.18;;;6.50;;
76693;SDS011;69667;52.136;5.424;2023-07-24T12:04:07;8.50;;;5.30;;
76693;SDS011;69667;52.136;5.424;2023-07-24T12:06:37;10.40;;;5.35;;
76693;SDS011;69667;52.136;5.424;2023-07-24T12:09:05;9.00;;;5.15;;
76693;SDS011;69667;52.136;5.424;2023-07-24T12:11:42;7.05;;;4.63;;
76693;SDS011;69667;52.136;5.424;2023-07-24T12:14:13;8.48;;;4.88;;
76693;SDS011;69667;52.136;5.424;2023-07-24T12:16:42;8.02;;;4.60;;
76693;SDS011;69667;52.136;5.424;2023-07-24T12:19:11;6.10;;;4.32;;
76693;SDS011;69667;52.136;5.424;2023-07-24T12:21:39;5.45;;;3.92;;
76693;SDS011;69667;52.136;5.424;2023-07-24T12:24:07;9.23;;;3.95;;
76693;SDS011;69667;52.136;5.424;2023-07-24T12:26:35;8.63;;;3.72;;
76693;SDS011;69667;52.136;5.424;2023-07-24T12:31:31;10.23;;;3.95;;
76693;SDS011;69667;52.136;5.424;2023-07-24T12:34:01;7.47;;;3.70;;
76693;SDS011;69667;52.136;5.424;2023-07-24T12:38:57;6.53;;;3.90;;
76693;SDS011;69667;52.136;5.424;2023-07-24T12:41:25;5.93;;;3.58;;
76693;SDS011;69667;52.136;5.424;2023-07-24T12:43:54;8.32;;;4.45;;
76693;SDS011;69667;52.136;5.424;2023-07-24T12:46:22;9.73;;;3.72;;
76693;SDS011;69667;52.136;5.424;2023-07-24T12:51:19;9.55;;;4.30;;
76693;SDS011;69667;52.136;5.424;2023-07-24T12:53:47;7.43;;;4.93;;
76693;SDS011;69667;52.136;5.424;2023-07-24T12:56:32;15.27;;;5.55;;
76693;SDS011;69667;52.136;5.424;2023-07-24T12:59:01;10.05;;;4.65;;
76693;SDS011;69667;52.136;5.424;2023-07-24T13:01:30;8.57;;;4.85;;
76693;SDS011;69667;52.136;5.424;2023-07-24T13:03:59;9.20;;;4.88;;
76693;SDS011;69667;52.136;5.424;2023-07-24T13:06:27;9.50;;;4.70;;
76693;SDS011;69667;52.136;5.424;2023-07-24T13:08:56;11.88;;;5.05;;
76693;SDS011;69667;52.136;5.424;2023-07-24T13:11:24;6.43;;;4.53;;
76693;SDS011;69667;52.136;5.424;2023-07-24T13:13:52;8.77;;;4.95;;
76693;SDS011;69667;52.136;5.424;2023-07-24T13:16:21;11.48;;;5.60;;
76693;SDS011;69667;52.136;5.424;2023-07-24T13:18:50;8.80;;;5.57;;
76693;SDS011;69667;52.136;5.424;2023-07-24T13:21:18;6.68;;;5.45;;
76693;SDS011;69667;52.136;5.424;2023-07-24T13:23:47;10.57;;;6.35;;
76693;SDS011;69667;52.136;5.424;2023-07-24T13:26:15;10.77;;;6.30;;
76693;SDS011;69667;52.136;5.424;2023-07-24T13:28:43;8.50;;;6.05;;
76693;SDS011;69667;52.136;5.424;2023-07-24T13:31:16;8.45;;;5.45;;
76693;SDS011;69667;52.136;5.424;2023-07-24T13:33:47;12.30;;;6.25;;
76693;SDS011;69667;52.136;5.424;2023-07-24T13:36:15;11.00;;;6.47;;
76693;SDS011;69667;52.136;5.424;2023-07-24T13:38:43;11.50;;;7.30;;
76693;SDS011;69667;52.136;5.424;2023-07-24T13:41:12;13.25;;;6.97;;
76693;SDS011;69667;52.136;5.424;2023-07-24T13:43:40;10.35;;;6.70;;
76693;SDS011;69667;52.136;5.424;2023-07-24T13:46:08;12.63;;;6.82;;
76693;SDS011;69667;52.136;5.424;2023-07-24T13:48:37;14.32;;;7.10;;
76693;SDS011;69667;52.136;5.424;2023-07-24T13:51:05;12.65;;;6.93;;
76693;SDS011;69667;52.136;5.424;2023-07-24T13:53:33;9.93;;;6.35;;
76693;SDS011;69667;52.136;5.424;2023-07-24T13:56:02;11.45;;;6.40;;
76693;SDS011;69667;52.136;5.424;2023-07-24T13:58:30;9.50;;;6.28;;
76693;SDS011;69667;52.136;5.424;2023-07-24T14:00:58;8.55;;;6.15;;
76693;SDS011;69667;52.136;5.424;2023-07-24T14:03:27;11.80;;;6.35;;
76693;SDS011;69667;52.136;5.424;2023-07-24T14:05:56;8.30;;;5.40;;
76693;SDS011;69667;52.136;5.424;2023-07-24T14:08:30;9.82;;;5.63;;
76693;SDS011;69667;52.136;5.424;2023-07-24T14:10:59;7.15;;;4.97;;
76693;SDS011;69667;52.136;5.424;2023-07-24T14:13:27;10.45;;;5.32;;
76693;SDS011;69667;52.136;5.424;2023-07-24T14:15:55;9.07;;;5.40;;
76693;SDS011;69667;52.136;5.424;2023-07-24T14:18:24;10.23;;;5.60;;
76693;SDS011;69667;52.136;5.424;2023-07-24T14:20:52;7.43;;;5.82;;
76693;SDS011;69667;52.136;5.424;2023-07-24T14:23:23;8.07;;;5.07;;
76693;SDS011;69667;52.136;5.424;2023-07-24T14:25:51;9.15;;;5.57;;
76693;SDS011;69667;52.136;5.424;2023-07-24T14:28:19;8.40;;;5.03;;
76693;SDS011;69667;52.136;5.424;2023-07-24T14:30:48;8.52;;;4.97;;
76693;SDS011;69667;52.136;5.424;2023-07-24T14:33:34;8.57;;;4.85;;
76693;SDS011;69667;52.136;5.424;2023-07-24T14:36:02;6.63;;;4.80;;
76693;SDS011;69667;52.136;5.424;2023-07-24T14:40:59;7.72;;;3.50;;
76693;SDS011;69667;52.136;5.424;2023-07-24T14:46:16;4.05;;;2.53;;
76693;SDS011;69667;52.136;5.424;2023-07-24T14:48:44;5.10;;;2.53;;
76693;SDS011;69667;52.136;5.424;2023-07-24T14:51:12;3.65;;;2.30;;
76693;SDS011;69667;52.136;5.424;2023-07-24T14:53:41;5.32;;;2.20;;
76693;SDS011;69667;52.136;5.424;2023-07-24T14:56:09;4.80;;;1.88;;
76693;SDS011;69667;52.136;5.424;2023-07-24T14:58:37;3.45;;;2.17;;
76693;SDS011;69667;52.136;5.424;2023-07-24T15:01:06;5.63;;;2.33;;
76693;SDS011;69667;52.136;5.424;2023-07-24T15:03:34;6.88;;;2.13;;
76693;SDS011;69667;52.136;5.424;2023-07-24T15:06:02;6.28;;;1.83;;
76693;SDS011;69667;52.136;5.424;2023-07-24T15:08:33;4.93;;;1.73;;
76693;SDS011;69667;52.136;5.424;2023-07-24T15:11:02;6.45;;;1.88;;
76693;SDS011;69667;52.136;5.424;2023-07-24T15:13:31;10.15;;;2.15;;
76693;SDS011;69667;52.136;5.424;2023-07-24T15:15:59;3.10;;;1.50;;
76693;SDS011;69667;52.136;5.424;2023-07-24T15:18:27;5.88;;;1.75;;
76693;SDS011;69667;52.136;5.424;2023-07-24T15:20:56;4.50;;;1.80;;
76693;SDS011;69667;52.136;5.424;2023-07-24T15:23:25;4.72;;;2.20;;
76693;SDS011;69667;52.136;5.424;2023-07-24T15:25:53;5.30;;;1.70;;
76693;SDS011;69667;52.136;5.424;2023-07-24T15:28:21;5.15;;;1.42;;
76693;SDS011;69667;52.136;5.424;2023-07-24T15:30:50;5.65;;;1.60;;
76693;SDS011;69667;52.136;5.424;2023-07-24T15:33:18;4.68;;;1.70;;
76693;SDS011;69667;52.136;5.424;2023-07-24T15:35:46;5.15;;;1.52;;
76693;SDS011;69667;52.136;5.424;2023-07-24T15:38:14;5.82;;;1.75;;
76693;SDS011;69667;52.136;5.424;2023-07-24T15:40:43;3.05;;;1.50;;
76693;SDS011;69667;52.136;5.424;2023-07-24T15:43:11;3.90;;;1.15;;
76693;SDS011;69667;52.136;5.424;2023-07-24T15:45:39;7.25;;;1.50;;
76693;SDS011;69667;52.136;5.424;2023-07-24T15:48:07;3.17;;;1.05;;
76693;SDS011;69667;52.136;5.424;2023-07-24T15:50:36;3.85;;;1.40;;
76693;SDS011;69667;52.136;5.424;2023-07-24T15:53:05;5.15;;;1.02;;
76693;SDS011;69667;52.136;5.424;2023-07-24T15:55:33;2.58;;;1.00;;